createdAt,value
2024-05-09T00:02:43.031Z,100.00
2024-05-09T00:09:01.497Z,100.00
2024-05-09T00:15:20.364Z,100.00
2024-05-09T00:21:45.226Z,100.00
2024-05-09T00:27:53.437Z,100.00
2024-05-09T00:38:42.909Z,100.00
2024-05-09T00:45:01.946Z,100.00
2024-05-09T00:51:20.913Z,100.00
2024-05-09T00:57:29.457Z,100.00
2024-05-09T01:03:51.424Z,100.00
2024-05-09T01:10:39.518Z,100.00
2024-05-09T01:16:48.601Z,100.00
2024-05-09T01:22:58.747Z,100.00
2024-05-09T01:29:17.498Z,100.00
2024-05-09T01:40:09.593Z,100.00
2024-05-09T01:46:30.852Z,100.00
2024-05-09T01:52:39.473Z,100.00
2024-05-09T01:58:58.103Z,100.00
2024-05-09T02:05:45.550Z,100.00
2024-05-09T02:11:54.567Z,100.00
2024-05-09T02:18:03.586Z,100.00
2024-05-09T02:24:21.980Z,100.00
2024-05-09T02:30:42.048Z,100.00
2024-05-09T02:41:23.159Z,100.00
2024-05-09T02:47:31.891Z,100.00
2024-05-09T02:53:50.529Z,100.00
2024-05-09T03:00:15.242Z,100.00
2024-05-09T03:06:54.020Z,100.00
2024-05-09T03:13:16.302Z,100.00
2024-05-09T03:19:36.636Z,100.00
2024-05-09T03:25:45.562Z,100.00
2024-05-09T03:32:04.264Z,100.00
2024-05-09T03:43:08.189Z,100.00
2024-05-09T03:49:27.237Z,100.00
2024-05-09T03:55:45.472Z,100.00
2024-05-09T04:02:21.742Z,100.00
2024-05-09T04:08:40.443Z,100.00
2024-05-09T04:14:58.882Z,100.00
2024-05-09T04:21:17.085Z,100.00
2024-05-09T04:27:25.383Z,100.00
2024-05-09T04:33:44.098Z,100.00
2024-05-09T04:44:34.229Z,100.00
2024-05-09T04:50:53.003Z,100.00
2024-05-09T04:57:29.071Z,100.00
2024-05-09T05:03:47.644Z,100.00
2024-05-09T05:10:09.339Z,100.00
2024-05-09T05:16:29.919Z,100.00
2024-05-09T05:22:38.248Z,100.00
2024-05-09T05:28:56.782Z,100.00
2024-05-09T05:35:15.464Z,100.00
2024-05-09T05:46:05.661Z,100.00
2024-05-09T05:52:13.988Z,100.00
2024-05-09T05:58:58.927Z,100.00
2024-05-09T06:05:18.187Z,100.00
2024-05-09T06:11:36.707Z,100.00
2024-05-09T06:17:45.162Z,100.00
2024-05-09T06:24:06.516Z,100.00
2024-05-09T06:30:30.510Z,100.00
2024-05-09T06:36:56.378Z,100.00
2024-05-09T06:47:59.487Z,100.00
2024-05-09T06:54:45.054Z,100.00
2024-05-09T07:01:04.337Z,100.00
2024-05-09T07:07:12.864Z,97.18
2024-05-09T07:13:31.441Z,100.00
2024-05-09T07:19:51.609Z,100.00
2024-05-09T07:26:10.292Z,75.26
2024-05-09T07:32:19.041Z,91.81
2024-05-09T07:38:37.954Z,87.61
2024-05-09T07:55:50.758Z,74.29
2024-05-09T08:01:59.705Z,84.16
2024-05-09T08:08:18.513Z,63.27
2024-05-09T08:14:36.680Z,70.74
2024-05-09T08:20:54.942Z,58.91
2024-05-09T08:27:13.425Z,55.02
2024-05-09T08:33:33.044Z,57.53
2024-05-09T08:39:51.788Z,51.75
2024-05-09T08:51:07.637Z,56.02
2024-05-09T08:57:16.897Z,51.30
2024-05-09T09:03:38.004Z,54.32
2024-05-09T09:09:57.450Z,56.88
2024-05-09T09:16:16.927Z,56.30
2024-05-09T09:22:25.053Z,48.95
2024-05-09T09:28:45.369Z,52.11
2024-05-09T09:35:03.593Z,49.73
2024-05-09T09:41:30.810Z,44.90
2024-05-09T09:52:34.372Z,47.05
2024-05-09T09:58:53.768Z,51.62
2024-05-09T10:05:12.734Z,44.57
2024-05-09T10:11:31.777Z,46.10
2024-05-09T10:17:51.633Z,47.60
2024-05-09T10:24:10.428Z,42.39
2024-05-09T10:30:36.148Z,43.23
2024-05-09T10:36:56.439Z,48.73
2024-05-09T10:43:32.059Z,43.69
2024-05-09T10:54:39.963Z,42.13
2024-05-09T11:00:59.369Z,41.04
2024-05-09T11:07:22.105Z,43.22
2024-05-09T11:13:32.223Z,44.75
2024-05-09T11:19:51.474Z,42.20
2024-05-09T11:26:11.276Z,43.56
2024-05-09T11:32:30.013Z,42.49
2024-05-09T11:39:16.274Z,46.46
2024-05-09T11:45:34.865Z,45.10
2024-05-09T11:56:39.422Z,38.88
2024-05-09T12:02:47.756Z,42.93
2024-05-09T12:08:57.123Z,42.63
2024-05-09T12:15:06.169Z,44.38
2024-05-09T12:21:25.052Z,44.65
2024-05-09T12:27:43.044Z,46.22
2024-05-09T12:34:28.027Z,42.95
2024-05-09T12:40:38.818Z,53.03
2024-05-09T12:46:59.215Z,45.25
2024-05-09T12:57:50.654Z,43.90
2024-05-09T13:03:58.591Z,57.61
2024-05-09T13:10:25.534Z,56.09
2024-05-09T13:16:50.808Z,53.99
2024-05-09T13:23:02.087Z,49.61
2024-05-09T13:29:21.014Z,44.27
2024-05-09T13:36:07.029Z,55.60
2024-05-09T13:42:15.680Z,57.09
2024-05-09T13:48:48.373Z,53.02
2024-05-09T13:59:38.424Z,61.56
2024-05-09T14:05:57.266Z,62.42
2024-05-09T14:12:07.413Z,46.84
2024-05-09T14:18:26.888Z,60.56
2024-05-09T14:24:45.626Z,65.29
2024-05-09T14:31:21.101Z,43.78
2024-05-09T14:37:39.848Z,60.56
2024-05-09T14:43:57.987Z,63.17
2024-05-09T14:50:23.761Z,56.78
2024-05-09T15:01:32.199Z,69.44
2024-05-09T15:07:50.768Z,72.06
2024-05-09T15:14:09.443Z,75.62
2024-05-09T15:20:26.832Z,63.56
2024-05-09T15:27:18.873Z,62.51
2024-05-09T15:33:37.076Z,65.97
2024-05-09T15:39:45.478Z,69.61
2024-05-09T15:46:03.873Z,70.18
2024-05-09T15:52:22.313Z,70.32
2024-05-09T16:03:25.621Z,75.24
2024-05-09T16:09:34.584Z,77.15
2024-05-09T16:15:52.814Z,78.01
2024-05-09T16:22:11.526Z,80.81
2024-05-09T16:28:30.262Z,78.61
2024-05-09T16:34:39.154Z,76.32
2024-05-09T16:40:57.703Z,75.24
2024-05-09T16:47:16.515Z,76.92
2024-05-09T16:53:36.236Z,79.02
2024-05-09T17:04:15.547Z,83.59
2024-05-09T17:10:31.303Z,84.13
2024-05-09T17:16:42.400Z,83.93
2024-05-09T17:23:28.112Z,84.10
2024-05-09T17:29:46.422Z,82.49
2024-05-09T17:36:05.195Z,89.06
2024-05-09T17:42:23.777Z,88.91
2024-05-09T17:48:42.687Z,89.48
2024-05-09T17:55:01.614Z,85.19
2024-05-09T18:05:40.404Z,90.68
2024-05-09T18:11:49.007Z,92.25
2024-05-09T18:18:34.721Z,95.75
2024-05-09T18:24:53.905Z,95.64
2024-05-09T18:31:12.279Z,94.49
2024-05-09T18:37:20.909Z,95.56
2024-05-09T18:43:44.955Z,92.63
2024-05-09T18:50:14.306Z,95.68
2024-05-09T18:56:37.799Z,97.66
2024-05-09T19:07:41.572Z,96.56
2024-05-09T19:14:04.749Z,98.55
2024-05-09T19:20:28.687Z,100.00
2024-05-09T19:26:52.437Z,100.00
2024-05-09T19:33:13.422Z,100.00
2024-05-09T19:39:32.762Z,100.00
2024-05-09T19:45:51.958Z,100.00
2024-05-09T19:52:00.464Z,100.00
2024-05-09T19:58:19.252Z,100.00
2024-05-09T20:09:09.728Z,100.00
2024-05-09T20:15:55.283Z,100.00
2024-05-09T20:22:03.737Z,100.00
2024-05-09T20:28:23.649Z,100.00
2024-05-09T20:34:41.658Z,100.00
2024-05-09T20:41:00.067Z,100.00
2024-05-09T20:47:09.176Z,100.00
2024-05-09T20:53:27.742Z,100.00
2024-05-09T20:59:45.792Z,100.00
2024-05-09T21:10:36.119Z,100.00
2024-05-09T21:16:45.057Z,100.00
2024-05-09T21:23:04.285Z,100.00
2024-05-09T21:29:22.466Z,100.00
2024-05-09T21:35:41.568Z,100.00
2024-05-09T21:41:50.347Z,100.00
2024-05-09T21:48:09.151Z,100.00
2024-05-09T21:54:27.675Z,100.00
2024-05-09T22:00:46.797Z,100.00
2024-05-09T22:11:54.561Z,100.00
2024-05-09T22:18:13.376Z,100.00
2024-05-09T22:24:31.892Z,100.00
2024-05-09T22:30:51.111Z,100.00
2024-05-09T22:36:59.934Z,100.00
2024-05-09T22:43:23.926Z,100.00
2024-05-09T22:49:43.735Z,100.00
2024-05-09T22:56:02.275Z,100.00
2024-05-09T23:02:11.533Z,100.00
2024-05-09T23:13:31.527Z,100.00
2024-05-09T23:19:50.266Z,100.00
2024-05-09T23:26:08.832Z,100.00
2024-05-09T23:32:17.419Z,100.00
2024-05-09T23:38:36.036Z,100.00
2024-05-09T23:44:55.053Z,100.00
2024-05-09T23:51:13.405Z,100.00
2024-05-09T23:57:45.702Z,100.00
